sensor_id;sensor_type;location;lat;lon;timestamp;temperature;humidity
2897;DHT22;1458;49.728;9.228;2022-09-02T00:00:06;12.80;99.90
2897;DHT22;1458;49.728;9.228;2022-09-02T00:02:35;12.70;99.90
2897;DHT22;1458;49.728;9.228;2022-09-02T00:05:03;12.70;99.90
2897;DHT22;1458;49.728;9.228;2022-09-02T00:07:32;12.70;99.90
2897;DHT22;1458;49.728;9.228;2022-09-02T00:09:59;12.60;99.90
2897;DHT22;1458;49.728;9.228;2022-09-02T00:12:26;12.80;99.90
2897;DHT22;1458;49.728;9.228;2022-09-02T00:14:54;12.80;99.90
2897;DHT22;1458;49.728;9.228;2022-09-02T00:17:23;12.70;99.90
2897;DHT22;1458;49.728;9.228;2022-09-02T00:19:50;12.70;99.90
2897;DHT22;1458;49.728;9.228;2022-09-02T00:22:19;12.60;99.90
2897;DHT22;1458;49.728;9.228;2022-09-02T00:24:47;12.60;99.90
2897;DHT22;1458;49.728;9.228;2022-09-02T00:27:14;12.60;99.90
2897;DHT22;1458;49.728;9.228;2022-09-02T00:29:42;12.40;99.90
2897;DHT22;1458;49.728;9.228;2022-09-02T00:32:09;12.30;99.90
2897;DHT22;1458;49.728;9.228;2022-09-02T00:34:39;12.30;99.90
2897;DHT22;1458;49.728;9.228;2022-09-02T00:37:06;12.30;99.90
2897;DHT22;1458;49.728;9.228;2022-09-02T00:39:34;12.30;99.90
2897;DHT22;1458;49.728;9.228;2022-09-02T00:42:02;12.40;99.90
2897;DHT22;1458;49.728;9.228;2022-09-02T00:44:33;12.50;99.90
2897;DHT22;1458;49.728;9.228;2022-09-02T00:47:00;12.30;99.90
2897;DHT22;1458;49.728;9.228;2022-09-02T00:49:31;12.20;99.90
2897;DHT22;1458;49.728;9.228;2022-09-02T00:52:04;12.10;99.90
2897;DHT22;1458;49.728;9.228;2022-09-02T00:54:41;11.90;99.90
2897;DHT22;1458;49.728;9.228;2022-09-02T00:57:14;12.10;99.90
2897;DHT22;1458;49.728;9.228;2022-09-02T00:59:50;12.40;99.90
2897;DHT22;1458;49.728;9.228;2022-09-02T01:02:22;12.40;99.90
2897;DHT22;1458;49.728;9.228;2022-09-02T01:04:51;12.60;99.90
2897;DHT22;1458;49.728;9.228;2022-09-02T01:07:23;12.60;99.90
2897;DHT22;1458;49.728;9.228;2022-09-02T01:09:52;12.40;99.90
2897;DHT22;1458;49.728;9.228;2022-09-02T01:12:20;12.30;99.90
2897;DHT22;1458;49.728;9.228;2022-09-02T01:14:48;12.30;99.90
2897;DHT22;1458;49.728;9.228;2022-09-02T01:17:15;12.20;99.90
2897;DHT22;1458;49.728;9.228;2022-09-02T01:19:49;12.20;99.90
2897;DHT22;1458;49.728;9.228;2022-09-02T01:22:23;12.20;99.90
2897;DHT22;1458;49.728;9.228;2022-09-02T01:24:52;12.20;99.90
2897;DHT22;1458;49.728;9.228;2022-09-02T01:27:22;12.10;99.90
2897;DHT22;1458;49.728;9.228;2022-09-02T01:29:51;12.00;99.90
2897;DHT22;1458;49.728;9.228;2022-09-02T01:32:20;11.90;99.90
2897;DHT22;1458;49.728;9.228;2022-09-02T01:34:49;11.80;99.90
2897;DHT22;1458;49.728;9.228;2022-09-02T01:37:17;11.70;99.90
2897;DHT22;1458;49.728;9.228;2022-09-02T01:39:46;11.60;99.90
2897;DHT22;1458;49.728;9.228;2022-09-02T01:42:15;11.70;99.90
2897;DHT22;1458;49.728;9.228;2022-09-02T01:44:42;11.80;99.90
2897;DHT22;1458;49.728;9.228;2022-09-02T01:47:11;11.90;99.90
2897;DHT22;1458;49.728;9.228;2022-09-02T01:49:40;12.10;99.90
2897;DHT22;1458;49.728;9.228;2022-09-02T01:52:08;12.30;99.90
2897;DHT22;1458;49.728;9.228;2022-09-02T01:54:38;12.20;99.90
2897;DHT22;1458;49.728;9.228;2022-09-02T01:57:08;12.00;99.90
2897;DHT22;1458;49.728;9.228;2022-09-02T01:59:37;12.10;99.90
2897;DHT22;1458;49.728;9.228;2022-09-02T02:02:05;12.20;99.90
2897;DHT22;1458;49.728;9.228;2022-09-02T02:04:34;12.10;99.90
2897;DHT22;1458;49.728;9.228;2022-09-02T02:07:05;11.90;99.90
2897;DHT22;1458;49.728;9.228;2022-09-02T02:09:33;11.80;99.90
2897;DHT22;1458;49.728;9.228;2022-09-02T02:12:03;11.70;99.90
2897;DHT22;1458;49.728;9.228;2022-09-02T02:14:34;11.60;99.90
2897;DHT22;1458;49.728;9.228;2022-09-02T02:17:02;11.50;99.90
2897;DHT22;1458;49.728;9.228;2022-09-02T02:19:30;11.20;99.90
2897;DHT22;1458;49.728;9.228;2022-09-02T02:21:57;11.10;99.90
2897;DHT22;1458;49.728;9.228;2022-09-02T02:24:25;11.00;99.90
2897;DHT22;1458;49.728;9.228;2022-09-02T02:26:53;11.20;99.90
2897;DHT22;1458;49.728;9.228;2022-09-02T02:29:22;11.50;99.90
2897;DHT22;1458;49.728;9.228;2022-09-02T02:31:51;11.60;99.90
2897;DHT22;1458;49.728;9.228;2022-09-02T02:34:19;11.60;99.90
2897;DHT22;1458;49.728;9.228;2022-09-02T02:36:47;11.70;99.90
2897;DHT22;1458;49.728;9.228;2022-09-02T02:39:14;11.80;99.90
2897;DHT22;1458;49.728;9.228;2022-09-02T02:41:42;11.70;99.90
2897;DHT22;1458;49.728;9.228;2022-09-02T02:44:12;11.60;99.90
2897;DHT22;1458;49.728;9.228;2022-09-02T02:46:40;11.50;99.90
2897;DHT22;1458;49.728;9.228;2022-09-02T02:49:10;11.60;99.90
2897;DHT22;1458;49.728;9.228;2022-09-02T02:51:38;11.70;99.90
2897;DHT22;1458;49.728;9.228;2022-09-02T02:54:06;11.50;99.90
2897;DHT22;1458;49.728;9.228;2022-09-02T02:56:35;11.70;99.90
2897;DHT22;1458;49.728;9.228;2022-09-02T02:59:03;11.80;99.90
2897;DHT22;1458;49.728;9.228;2022-09-02T03:01:32;11.80;99.90
2897;DHT22;1458;49.728;9.228;2022-09-02T03:04:02;11.80;99.90
2897;DHT22;1458;49.728;9.228;2022-09-02T03:06:32;11.70;99.90
2897;DHT22;1458;49.728;9.228;2022-09-02T03:09:02;11.60;99.90
2897;DHT22;1458;49.728;9.228;2022-09-02T03:11:30;11.50;99.90
2897;DHT22;1458;49.728;9.228;2022-09-02T03:13:58;11.20;99.90
2897;DHT22;1458;49.728;9.228;2022-09-02T03:16:25;10.90;99.90
2897;DHT22;1458;49.728;9.228;2022-09-02T03:18:54;11.10;99.90
2897;DHT22;1458;49.728;9.228;2022-09-02T03:21:21;11.00;99.90
2897;DHT22;1458;49.728;9.228;2022-09-02T03:23:50;11.00;99.90
2897;DHT22;1458;49.728;9.228;2022-09-02T03:26:21;10.90;99.90
2897;DHT22;1458;49.728;9.228;2022-09-02T03:28:53;10.90;99.90
2897;DHT22;1458;49.728;9.228;2022-09-02T03:31:25;10.90;99.90
2897;DHT22;1458;49.728;9.228;2022-09-02T03:33:54;10.90;99.90
2897;DHT22;1458;49.728;9.228;2022-09-02T03:36:25;10.90;99.90
2897;DHT22;1458;49.728;9.228;2022-09-02T03:38:56;10.80;99.90
2897;DHT22;1458;49.728;9.228;2022-09-02T03:41:27;10.80;99.90
2897;DHT22;1458;49.728;9.228;2022-09-02T03:43:55;10.80;99.90
2897;DHT22;1458;49.728;9.228;2022-09-02T03:46:23;10.70;99.90
2897;DHT22;1458;49.728;9.228;2022-09-02T03:48:52;10.70;99.90
2897;DHT22;1458;49.728;9.228;2022-09-02T03:51:21;10.60;99.90
2897;DHT22;1458;49.728;9.228;2022-09-02T03:53:50;10.60;99.90
2897;DHT22;1458;49.728;9.228;2022-09-02T03:56:20;10.40;99.90
2897;DHT22;1458;49.728;9.228;2022-09-02T03:58:50;10.30;99.90
2897;DHT22;1458;49.728;9.228;2022-09-02T04:01:24;10.20;99.90
2897;DHT22;1458;49.728;9.228;2022-09-02T04:03:53;10.20;99.90
2897;DHT22;1458;49.728;9.228;2022-09-02T04:06:23;10.40;99.90
2897;DHT22;1458;49.728;9.228;2022-09-02T04:08:58;10.50;99.90
2897;DHT22;1458;49.728;9.228;2022-09-02T04:11:37;10.60;99.90
2897;DHT22;1458;49.728;9.228;2022-09-02T04:14:08;10.60;99.90
2897;DHT22;1458;49.728;9.228;2022-09-02T04:24:50;10.40;99.90
2897;DHT22;1458;49.728;9.228;2022-09-02T04:27:24;10.30;99.90
2897;DHT22;1458;49.728;9.228;2022-09-02T04:33:13;10.50;99.90
2897;DHT22;1458;49.728;9.228;2022-09-02T04:35:46;10.40;99.90
2897;DHT22;1458;49.728;9.228;2022-09-02T04:38:16;10.30;99.90
2897;DHT22;1458;49.728;9.228;2022-09-02T04:40:45;10.40;99.90
2897;DHT22;1458;49.728;9.228;2022-09-02T04:43:16;10.30;99.90
2897;DHT22;1458;49.728;9.228;2022-09-02T04:45:45;10.60;99.90
2897;DHT22;1458;49.728;9.228;2022-09-02T04:48:15;10.70;99.90
2897;DHT22;1458;49.728;9.228;2022-09-02T04:50:44;10.80;99.90
2897;DHT22;1458;49.728;9.228;2022-09-02T04:53:13;10.70;99.90
2897;DHT22;1458;49.728;9.228;2022-09-02T04:55:42;10.80;99.90
2897;DHT22;1458;49.728;9.228;2022-09-02T04:58:11;10.90;99.90
2897;DHT22;1458;49.728;9.228;2022-09-02T05:00:43;11.10;99.90
2897;DHT22;1458;49.728;9.228;2022-09-02T05:03:13;11.10;99.90
2897;DHT22;1458;49.728;9.228;2022-09-02T05:05:42;11.10;99.90
2897;DHT22;1458;49.728;9.228;2022-09-02T05:08:15;11.20;99.90
2897;DHT22;1458;49.728;9.228;2022-09-02T05:10:44;11.20;99.90
2897;DHT22;1458;49.728;9.228;2022-09-02T05:13:13;11.20;99.90
2897;DHT22;1458;49.728;9.228;2022-09-02T05:15:40;11.30;99.90
2897;DHT22;1458;49.728;9.228;2022-09-02T05:18:13;11.30;99.90
2897;DHT22;1458;49.728;9.228;2022-09-02T05:20:41;11.40;99.90
2897;DHT22;1458;49.728;9.228;2022-09-02T05:23:10;11.60;99.90
2897;DHT22;1458;49.728;9.228;2022-09-02T05:25:40;11.60;99.90
2897;DHT22;1458;49.728;9.228;2022-09-02T05:28:09;11.70;99.90
2897;DHT22;1458;49.728;9.228;2022-09-02T05:37:16;11.80;99.90
2897;DHT22;1458;49.728;9.228;2022-09-02T05:39:45;11.80;99.90
2897;DHT22;1458;49.728;9.228;2022-09-02T05:42:13;11.80;99.90
2897;DHT22;1458;49.728;9.228;2022-09-02T05:44:43;11.80;99.90
2897;DHT22;1458;49.728;9.228;2022-09-02T05:47:14;11.80;99.90
2897;DHT22;1458;49.728;9.228;2022-09-02T05:49:44;11.90;99.90
2897;DHT22;1458;49.728;9.228;2022-09-02T05:52:14;12.00;99.90
2897;DHT22;1458;49.728;9.228;2022-09-02T05:54:46;12.10;99.90
2897;DHT22;1458;49.728;9.228;2022-09-02T05:57:17;12.30;99.90
2897;DHT22;1458;49.728;9.228;2022-09-02T05:59:55;13.00;99.90
2897;DHT22;1458;49.728;9.228;2022-09-02T06:02:28;13.80;99.90
2897;DHT22;1458;49.728;9.228;2022-09-02T06:04:56;14.40;99.90
2897;DHT22;1458;49.728;9.228;2022-09-02T06:07:26;14.80;99.00
2897;DHT22;1458;49.728;9.228;2022-09-02T06:09:56;15.10;97.00
2897;DHT22;1458;49.728;9.228;2022-09-02T06:12:25;15.30;95.60
2897;DHT22;1458;49.728;9.228;2022-09-02T06:14:56;14.90;94.90
2897;DHT22;1458;49.728;9.228;2022-09-02T06:17:25;14.70;95.40
2897;DHT22;1458;49.728;9.228;2022-09-02T06:19:54;14.60;96.70
2897;DHT22;1458;49.728;9.228;2022-09-02T06:22:26;14.60;97.10
2897;DHT22;1458;49.728;9.228;2022-09-02T06:24:55;14.70;97.50
2897;DHT22;1458;49.728;9.228;2022-09-02T06:27:25;14.90;97.20
2897;DHT22;1458;49.728;9.228;2022-09-02T06:29:55;15.10;97.20
2897;DHT22;1458;49.728;9.228;2022-09-02T06:32:25;15.20;95.30
2897;DHT22;1458;49.728;9.228;2022-09-02T06:34:58;15.40;95.40
2897;DHT22;1458;49.728;9.228;2022-09-02T06:37:30;15.20;95.90
2897;DHT22;1458;49.728;9.228;2022-09-02T06:39:58;15.10;94.70
2897;DHT22;1458;49.728;9.228;2022-09-02T06:42:27;15.40;95.50
2897;DHT22;1458;49.728;9.228;2022-09-02T06:45:14;15.80;94.30
2897;DHT22;1458;49.728;9.228;2022-09-02T06:47:43;16.10;92.80
2897;DHT22;1458;49.728;9.228;2022-09-02T06:50:13;16.20;91.90
2897;DHT22;1458;49.728;9.228;2022-09-02T06:52:42;16.10;91.70
2897;DHT22;1458;49.728;9.228;2022-09-02T06:55:12;16.10;92.10
2897;DHT22;1458;49.728;9.228;2022-09-02T06:57:41;16.20;92.20
2897;DHT22;1458;49.728;9.228;2022-09-02T07:00:18;16.30;92.10
2897;DHT22;1458;49.728;9.228;2022-09-02T07:02:46;16.40;91.30
2897;DHT22;1458;49.728;9.228;2022-09-02T07:05:35;16.40;91.00
2897;DHT22;1458;49.728;9.228;2022-09-02T07:08:03;16.70;90.10
2897;DHT22;1458;49.728;9.228;2022-09-02T07:10:32;16.70;89.90
2897;DHT22;1458;49.728;9.228;2022-09-02T07:13:03;16.80;90.10
2897;DHT22;1458;49.728;9.228;2022-09-02T07:15:31;16.80;90.20
2897;DHT22;1458;49.728;9.228;2022-09-02T07:17:59;16.80;90.30
2897;DHT22;1458;49.728;9.228;2022-09-02T07:20:35;16.90;90.30
2897;DHT22;1458;49.728;9.228;2022-09-02T07:23:04;16.90;87.30
2897;DHT22;1458;49.728;9.228;2022-09-02T07:25:34;17.10;89.00
2897;DHT22;1458;49.728;9.228;2022-09-02T07:28:06;17.20;87.70
2897;DHT22;1458;49.728;9.228;2022-09-02T07:30:36;17.10;86.60
2897;DHT22;1458;49.728;9.228;2022-09-02T07:33:11;17.50;85.60
2897;DHT22;1458;49.728;9.228;2022-09-02T07:35:41;17.70;84.80
2897;DHT22;1458;49.728;9.228;2022-09-02T07:38:11;17.90;82.50
2897;DHT22;1458;49.728;9.228;2022-09-02T07:40:40;18.00;82.00
2897;DHT22;1458;49.728;9.228;2022-09-02T07:43:10;18.30;78.30
2897;DHT22;1458;49.728;9.228;2022-09-02T07:45:39;18.50;74.20
2897;DHT22;1458;49.728;9.228;2022-09-02T07:48:09;18.60;74.60
2897;DHT22;1458;49.728;9.228;2022-09-02T07:50:37;18.80;74.60
2897;DHT22;1458;49.728;9.228;2022-09-02T07:53:10;18.80;71.60
2897;DHT22;1458;49.728;9.228;2022-09-02T07:55:42;18.80;70.30
2897;DHT22;1458;49.728;9.228;2022-09-02T07:58:12;18.70;69.30
2897;DHT22;1458;49.728;9.228;2022-09-02T08:00:42;19.00;69.90
2897;DHT22;1458;49.728;9.228;2022-09-02T08:03:10;18.90;68.60
2897;DHT22;1458;49.728;9.228;2022-09-02T08:05:48;19.00;67.20
2897;DHT22;1458;49.728;9.228;2022-09-02T08:08:19;18.80;67.70
2897;DHT22;1458;49.728;9.228;2022-09-02T08:10:48;18.90;65.60
2897;DHT22;1458;49.728;9.228;2022-09-02T08:13:17;18.80;65.80
2897;DHT22;1458;49.728;9.228;2022-09-02T08:15:46;19.00;67.30
2897;DHT22;1458;49.728;9.228;2022-09-02T08:18:14;19.00;65.70
2897;DHT22;1458;49.728;9.228;2022-09-02T08:20:42;19.30;64.10
2897;DHT22;1458;49.728;9.228;2022-09-02T08:23:10;19.40;63.10
2897;DHT22;1458;49.728;9.228;2022-09-02T08:25:40;19.40;63.20
2897;DHT22;1458;49.728;9.228;2022-09-02T08:28:08;19.50;63.10
2897;DHT22;1458;49.728;9.228;2022-09-02T08:30:35;19.60;62.60
2897;DHT22;1458;49.728;9.228;2022-09-02T08:33:03;19.30;61.60
2897;DHT22;1458;49.728;9.228;2022-09-02T08:35:33;19.50;60.90
2897;DHT22;1458;49.728;9.228;2022-09-02T08:38:01;19.50;61.20
2897;DHT22;1458;49.728;9.228;2022-09-02T08:40:34;19.40;61.20
2897;DHT22;1458;49.728;9.228;2022-09-02T08:43:17;19.60;60.40
2897;DHT22;1458;49.728;9.228;2022-09-02T08:45:52;19.70;61.20
2897;DHT22;1458;49.728;9.228;2022-09-02T08:48:24;19.70;60.20
2897;DHT22;1458;49.728;9.228;2022-09-02T08:51:09;19.80;59.60
2897;DHT22;1458;49.728;9.228;2022-09-02T08:53:47;19.70;60.30
2897;DHT22;1458;49.728;9.228;2022-09-02T08:56:17;19.80;59.00
2897;DHT22;1458;49.728;9.228;2022-09-02T08:58:48;19.90;59.90
2897;DHT22;1458;49.728;9.228;2022-09-02T09:01:24;19.90;59.10
2897;DHT22;1458;49.728;9.228;2022-09-02T09:04:21;20.00;59.30
2897;DHT22;1458;49.728;9.228;2022-09-02T09:07:14;20.10;58.10
2897;DHT22;1458;49.728;9.228;2022-09-02T09:10:02;20.20;57.40
2897;DHT22;1458;49.728;9.228;2022-09-02T09:12:51;20.30;56.00
2897;DHT22;1458;49.728;9.228;2022-09-02T09:15:37;20.40;57.30
2897;DHT22;1458;49.728;9.228;2022-09-02T09:18:08;20.20;56.70
2897;DHT22;1458;49.728;9.228;2022-09-02T09:20:40;20.40;56.00
2897;DHT22;1458;49.728;9.228;2022-09-02T09:23:17;20.60;52.90
2897;DHT22;1458;49.728;9.228;2022-09-02T09:25:52;20.70;54.90
2897;DHT22;1458;49.728;9.228;2022-09-02T09:28:26;20.80;53.60
2897;DHT22;1458;49.728;9.228;2022-09-02T09:30:55;20.60;51.50
2897;DHT22;1458;49.728;9.228;2022-09-02T09:33:24;20.70;50.50
2897;DHT22;1458;49.728;9.228;2022-09-02T09:35:53;20.70;50.70
2897;DHT22;1458;49.728;9.228;2022-09-02T09:38:28;20.70;49.60
2897;DHT22;1458;49.728;9.228;2022-09-02T09:41:11;20.60;50.40
2897;DHT22;1458;49.728;9.228;2022-09-02T09:43:41;20.80;51.60
2897;DHT22;1458;49.728;9.228;2022-09-02T09:46:25;21.10;48.90
2897;DHT22;1458;49.728;9.228;2022-09-02T09:48:54;21.00;49.00
2897;DHT22;1458;49.728;9.228;2022-09-02T09:51:23;21.20;50.40
2897;DHT22;1458;49.728;9.228;2022-09-02T09:53:51;21.30;49.00
2897;DHT22;1458;49.728;9.228;2022-09-02T09:56:29;21.30;48.50
2897;DHT22;1458;49.728;9.228;2022-09-02T09:59:01;21.40;46.80
2897;DHT22;1458;49.728;9.228;2022-09-02T10:01:32;21.30;46.70
2897;DHT22;1458;49.728;9.228;2022-09-02T10:04:03;21.60;46.80
2897;DHT22;1458;49.728;9.228;2022-09-02T10:06:38;21.70;43.90
2897;DHT22;1458;49.728;9.228;2022-09-02T10:09:32;21.60;41.60
2897;DHT22;1458;49.728;9.228;2022-09-02T10:12:02;21.80;40.70
2897;DHT22;1458;49.728;9.228;2022-09-02T10:14:34;21.80;39.00
2897;DHT22;1458;49.728;9.228;2022-09-02T10:17:15;21.70;38.20
2897;DHT22;1458;49.728;9.228;2022-09-02T10:19:54;21.80;35.20
2897;DHT22;1458;49.728;9.228;2022-09-02T10:22:53;22.20;38.30
2897;DHT22;1458;49.728;9.228;2022-09-02T10:25:42;22.60;38.70
2897;DHT22;1458;49.728;9.228;2022-09-02T10:28:30;22.30;37.50
2897;DHT22;1458;49.728;9.228;2022-09-02T10:31:11;22.60;32.00
2897;DHT22;1458;49.728;9.228;2022-09-02T10:33:52;22.40;33.00
2897;DHT22;1458;49.728;9.228;2022-09-02T10:36:33;22.30;28.70
2897;DHT22;1458;49.728;9.228;2022-09-02T10:39:15;22.20;30.10
2897;DHT22;1458;49.728;9.228;2022-09-02T10:41:50;21.90;30.10
2897;DHT22;1458;49.728;9.228;2022-09-02T10:44:27;21.90;32.80
2897;DHT22;1458;49.728;9.228;2022-09-02T10:47:00;22.10;31.30
2897;DHT22;1458;49.728;9.228;2022-09-02T10:49:41;22.00;31.10
2897;DHT22;1458;49.728;9.228;2022-09-02T10:52:27;21.90;32.40
2897;DHT22;1458;49.728;9.228;2022-09-02T10:55:09;21.90;29.40
2897;DHT22;1458;49.728;9.228;2022-09-02T10:57:46;22.00;29.10
2897;DHT22;1458;49.728;9.228;2022-09-02T11:00:19;22.10;29.50
2897;DHT22;1458;49.728;9.228;2022-09-02T11:02:50;22.10;30.10
2897;DHT22;1458;49.728;9.228;2022-09-02T11:05:28;21.80;28.70
2897;DHT22;1458;49.728;9.228;2022-09-02T11:08:11;21.50;28.50
2897;DHT22;1458;49.728;9.228;2022-09-02T11:10:48;21.90;29.30
2897;DHT22;1458;49.728;9.228;2022-09-02T11:13:28;22.30;30.60
2897;DHT22;1458;49.728;9.228;2022-09-02T11:16:05;22.50;28.00
2897;DHT22;1458;49.728;9.228;2022-09-02T11:18:42;22.30;27.30
2897;DHT22;1458;49.728;9.228;2022-09-02T11:21:26;22.10;28.30
2897;DHT22;1458;49.728;9.228;2022-09-02T11:24:03;22.20;28.60
2897;DHT22;1458;49.728;9.228;2022-09-02T11:26:37;22.50;28.20
2897;DHT22;1458;49.728;9.228;2022-09-02T11:29:13;22.70;29.50
2897;DHT22;1458;49.728;9.228;2022-09-02T11:31:47;22.80;27.50
2897;DHT22;1458;49.728;9.228;2022-09-02T11:34:33;23.00;27.70
2897;DHT22;1458;49.728;9.228;2022-09-02T11:37:05;23.00;28.10
2897;DHT22;1458;49.728;9.228;2022-09-02T11:39:38;22.70;27.20
2897;DHT22;1458;49.728;9.228;2022-09-02T11:42:16;22.90;28.90
2897;DHT22;1458;49.728;9.228;2022-09-02T11:45:30;23.20;27.40
2897;DHT22;1458;49.728;9.228;2022-09-02T11:48:29;23.10;25.40
2897;DHT22;1458;49.728;9.228;2022-09-02T11:51:40;23.10;25.70
2897;DHT22;1458;49.728;9.228;2022-09-02T11:54:35;23.40;25.80
2897;DHT22;1458;49.728;9.228;2022-09-02T11:57:05;23.30;25.60
2897;DHT22;1458;49.728;9.228;2022-09-02T12:00:05;23.30;25.50
2897;DHT22;1458;49.728;9.228;2022-09-02T12:02:40;23.30;24.20
2897;DHT22;1458;49.728;9.228;2022-09-02T12:05:44;23.10;23.00
2897;DHT22;1458;49.728;9.228;2022-09-02T12:11:50;23.00;24.70
2897;DHT22;1458;49.728;9.228;2022-09-02T12:21:05;23.00;23.50
2897;DHT22;1458;49.728;9.228;2022-09-02T12:27:23;23.60;24.70
2897;DHT22;1458;49.728;9.228;2022-09-02T12:29:53;23.80;23.90
2897;DHT22;1458;49.728;9.228;2022-09-02T12:35:48;24.00;23.40
2897;DHT22;1458;49.728;9.228;2022-09-02T12:38:32;23.80;23.70
2897;DHT22;1458;49.728;9.228;2022-09-02T12:44:10;23.30;22.30
2897;DHT22;1458;49.728;9.228;2022-09-02T12:46:54;23.20;22.60
2897;DHT22;1458;49.728;9.228;2022-09-02T12:49:36;23.10;22.80
2897;DHT22;1458;49.728;9.228;2022-09-02T12:52:11;22.90;23.80
2897;DHT22;1458;49.728;9.228;2022-09-02T12:54:49;23.00;23.70
2897;DHT22;1458;49.728;9.228;2022-09-02T12:57:18;23.00;23.10
2897;DHT22;1458;49.728;9.228;2022-09-02T12:59:47;23.60;23.80
2897;DHT22;1458;49.728;9.228;2022-09-02T13:02:28;24.00;22.60
2897;DHT22;1458;49.728;9.228;2022-09-02T13:05:23;24.00;23.40
2897;DHT22;1458;49.728;9.228;2022-09-02T13:11:52;23.70;22.30
2897;DHT22;1458;49.728;9.228;2022-09-02T13:15:02;23.40;22.00
2897;DHT22;1458;49.728;9.228;2022-09-02T13:17:47;23.50;22.10
2897;DHT22;1458;49.728;9.228;2022-09-02T13:20:57;23.50;22.10
2897;DHT22;1458;49.728;9.228;2022-09-02T13:24:09;23.70;21.00
2897;DHT22;1458;49.728;9.228;2022-09-02T13:26:59;23.60;21.10
2897;DHT22;1458;49.728;9.228;2022-09-02T13:29:58;23.60;20.90
2897;DHT22;1458;49.728;9.228;2022-09-02T13:32:33;23.40;22.10
2897;DHT22;1458;49.728;9.228;2022-09-02T13:35:02;23.50;22.10
2897;DHT22;1458;49.728;9.228;2022-09-02T13:37:34;23.60;20.50
2897;DHT22;1458;49.728;9.228;2022-09-02T13:40:15;23.60;20.20
2897;DHT22;1458;49.728;9.228;2022-09-02T13:42:47;23.50;20.50
2897;DHT22;1458;49.728;9.228;2022-09-02T13:45:19;23.60;21.20
2897;DHT22;1458;49.728;9.228;2022-09-02T13:47:49;23.50;20.40
2897;DHT22;1458;49.728;9.228;2022-09-02T13:50:20;23.60;20.70
2897;DHT22;1458;49.728;9.228;2022-09-02T13:52:52;23.50;20.00
2897;DHT22;1458;49.728;9.228;2022-09-02T13:55:21;23.40;20.40
2897;DHT22;1458;49.728;9.228;2022-09-02T13:57:54;23.40;20.30
2897;DHT22;1458;49.728;9.228;2022-09-02T14:00:31;23.40;21.20
2897;DHT22;1458;49.728;9.228;2022-09-02T14:03:02;23.50;21.20
2897;DHT22;1458;49.728;9.228;2022-09-02T14:05:33;23.50;20.40
2897;DHT22;1458;49.728;9.228;2022-09-02T14:08:04;23.50;20.80
2897;DHT22;1458;49.728;9.228;2022-09-02T14:10:34;23.60;20.50
2897;DHT22;1458;49.728;9.228;2022-09-02T14:13:05;23.40;22.00
2897;DHT22;1458;49.728;9.228;2022-09-02T14:15:35;23.60;22.20
2897;DHT22;1458;49.728;9.228;2022-09-02T14:18:14;23.60;21.30
2897;DHT22;1458;49.728;9.228;2022-09-02T14:20:57;23.70;22.30
2897;DHT22;1458;49.728;9.228;2022-09-02T14:23:28;23.60;21.40
2897;DHT22;1458;49.728;9.228;2022-09-02T14:25:59;23.70;21.70
2897;DHT22;1458;49.728;9.228;2022-09-02T14:28:29;23.80;21.20
2897;DHT22;1458;49.728;9.228;2022-09-02T14:31:01;23.60;21.30
2897;DHT22;1458;49.728;9.228;2022-09-02T14:33:40;23.60;21.70
2897;DHT22;1458;49.728;9.228;2022-09-02T14:36:12;23.70;21.30
2897;DHT22;1458;49.728;9.228;2022-09-02T14:39:10;23.70;22.30
2897;DHT22;1458;49.728;9.228;2022-09-02T14:41:45;23.70;22.30
2897;DHT22;1458;49.728;9.228;2022-09-02T14:44:17;23.80;21.00
2897;DHT22;1458;49.728;9.228;2022-09-02T14:46:51;23.80;20.20
2897;DHT22;1458;49.728;9.228;2022-09-02T14:49:23;23.60;20.70
2897;DHT22;1458;49.728;9.228;2022-09-02T14:51:54;23.40;21.20
2897;DHT22;1458;49.728;9.228;2022-09-02T14:54:34;23.60;21.20
2897;DHT22;1458;49.728;9.228;2022-09-02T14:57:03;23.40;22.00
2897;DHT22;1458;49.728;9.228;2022-09-02T14:59:31;23.50;22.10
2897;DHT22;1458;49.728;9.228;2022-09-02T15:02:02;23.60;22.20
2897;DHT22;1458;49.728;9.228;2022-09-02T15:04:30;23.50;22.10
2897;DHT22;1458;49.728;9.228;2022-09-02T15:07:00;23.60;22.10
2897;DHT22;1458;49.728;9.228;2022-09-02T15:09:28;23.60;21.30
2897;DHT22;1458;49.728;9.228;2022-09-02T15:11:57;23.60;22.00
2897;DHT22;1458;49.728;9.228;2022-09-02T15:14:25;23.60;20.60
2897;DHT22;1458;49.728;9.228;2022-09-02T15:16:52;23.60;20.90
2897;DHT22;1458;49.728;9.228;2022-09-02T15:19:21;23.70;21.10
2897;DHT22;1458;49.728;9.228;2022-09-02T15:21:49;23.70;21.10
2897;DHT22;1458;49.728;9.228;2022-09-02T15:24:17;23.70;21.50
2897;DHT22;1458;49.728;9.228;2022-09-02T15:26:44;23.60;20.60
2897;DHT22;1458;49.728;9.228;2022-09-02T15:29:12;23.60;21.20
2897;DHT22;1458;49.728;9.228;2022-09-02T15:31:40;23.60;20.80
2897;DHT22;1458;49.728;9.228;2022-09-02T15:34:07;23.50;20.30
2897;DHT22;1458;49.728;9.228;2022-09-02T15:36:36;23.60;20.90
2897;DHT22;1458;49.728;9.228;2022-09-02T15:39:04;23.70;20.30
2897;DHT22;1458;49.728;9.228;2022-09-02T15:41:31;23.60;19.70
2897;DHT22;1458;49.728;9.228;2022-09-02T15:43:59;23.60;20.40
2897;DHT22;1458;49.728;9.228;2022-09-02T15:46:29;23.70;20.50
2897;DHT22;1458;49.728;9.228;2022-09-02T15:49:01;23.60;21.00
2897;DHT22;1458;49.728;9.228;2022-09-02T15:51:29;23.50;20.40
2897;DHT22;1458;49.728;9.228;2022-09-02T15:54:00;23.40;20.00
2897;DHT22;1458;49.728;9.228;2022-09-02T15:56:34;23.40;20.50
2897;DHT22;1458;49.728;9.228;2022-09-02T15:59:04;23.50;20.20
2897;DHT22;1458;49.728;9.228;2022-09-02T16:01:35;23.50;20.70
2897;DHT22;1458;49.728;9.228;2022-09-02T16:04:05;23.60;20.60
2897;DHT22;1458;49.728;9.228;2022-09-02T16:06:35;23.60;20.20
2897;DHT22;1458;49.728;9.228;2022-09-02T16:09:06;23.60;21.60
2897;DHT22;1458;49.728;9.228;2022-09-02T16:11:36;23.40;21.90
2897;DHT22;1458;49.728;9.228;2022-09-02T16:14:05;23.40;20.80
2897;DHT22;1458;49.728;9.228;2022-09-02T16:16:34;23.30;21.90
2897;DHT22;1458;49.728;9.228;2022-09-02T16:19:03;23.20;20.50
2897;DHT22;1458;49.728;9.228;2022-09-02T16:21:32;23.40;21.20
2897;DHT22;1458;49.728;9.228;2022-09-02T16:23:59;23.30;21.60
2897;DHT22;1458;49.728;9.228;2022-09-02T16:26:29;23.20;21.80
2897;DHT22;1458;49.728;9.228;2022-09-02T16:28:59;23.20;20.20
2897;DHT22;1458;49.728;9.228;2022-09-02T16:31:29;23.10;21.70
2897;DHT22;1458;49.728;9.228;2022-09-02T16:34:01;23.10;20.90
2897;DHT22;1458;49.728;9.228;2022-09-02T16:36:32;23.00;20.80
2897;DHT22;1458;49.728;9.228;2022-09-02T16:39:01;22.90;21.50
2897;DHT22;1458;49.728;9.228;2022-09-02T16:41:34;22.90;21.40
2897;DHT22;1458;49.728;9.228;2022-09-02T16:44:03;23.00;21.60
2897;DHT22;1458;49.728;9.228;2022-09-02T16:46:33;22.80;21.50
2897;DHT22;1458;49.728;9.228;2022-09-02T16:49:02;22.80;21.50
2897;DHT22;1458;49.728;9.228;2022-09-02T16:51:31;23.00;22.30
2897;DHT22;1458;49.728;9.228;2022-09-02T16:54:02;22.90;21.60
2897;DHT22;1458;49.728;9.228;2022-09-02T16:56:31;22.70;22.10
2897;DHT22;1458;49.728;9.228;2022-09-02T16:59:03;22.60;21.70
2897;DHT22;1458;49.728;9.228;2022-09-02T17:01:32;22.60;21.90
2897;DHT22;1458;49.728;9.228;2022-09-02T17:04:00;22.60;21.30
2897;DHT22;1458;49.728;9.228;2022-09-02T17:06:28;22.70;22.10
2897;DHT22;1458;49.728;9.228;2022-09-02T17:08:57;22.60;22.20
2897;DHT22;1458;49.728;9.228;2022-09-02T17:11:27;22.60;22.60
2897;DHT22;1458;49.728;9.228;2022-09-02T17:13:59;22.40;22.60
2897;DHT22;1458;49.728;9.228;2022-09-02T17:16:30;22.40;22.90
2897;DHT22;1458;49.728;9.228;2022-09-02T17:18:58;22.40;22.80